createdAt,value
2022-11-13T00:01:20.156Z,48.50
2022-11-13T00:03:49.634Z,54.87
2022-11-13T00:06:17.897Z,49.90
2022-11-13T00:08:45.353Z,51.70
2022-11-13T00:11:18.576Z,46.77
2022-11-13T00:13:46.595Z,48.77
2022-11-13T00:16:17.225Z,45.97
2022-11-13T00:18:44.837Z,47.03
2022-11-13T00:21:14.213Z,46.33
2022-11-13T00:23:42.814Z,47.57
2022-11-13T00:26:13.553Z,42.90
2022-11-13T00:28:41.318Z,46.30
2022-11-13T00:31:10.825Z,46.50
2022-11-13T00:36:29.410Z,42.57
2022-11-13T00:38:56.979Z,44.80
2022-11-13T00:41:24.743Z,45.30
2022-11-13T00:43:52.395Z,45.20
2022-11-13T00:46:19.976Z,45.07
2022-11-13T00:48:47.074Z,44.67
2022-11-13T00:51:14.589Z,45.03
2022-11-13T00:53:41.953Z,43.53
2022-11-13T00:56:08.948Z,43.47
2022-11-13T00:58:36.375Z,44.80
2022-11-13T01:01:12.005Z,41.13
2022-11-13T01:03:39.756Z,46.47
2022-11-13T01:06:10.905Z,48.03
2022-11-13T01:08:38.085Z,41.07
2022-11-13T01:11:21.427Z,41.50
2022-11-13T01:13:50.429Z,49.57
2022-11-13T01:16:19.537Z,43.93
2022-11-13T01:18:46.854Z,42.97
2022-11-13T01:21:17.852Z,45.50
2022-11-13T01:23:45.187Z,46.50
2022-11-13T01:26:22.297Z,44.23
2022-11-13T01:28:49.569Z,42.97
2022-11-13T01:31:19.829Z,45.27
2022-11-13T01:33:48.223Z,46.23
2022-11-13T01:36:24.957Z,46.03
2022-11-13T01:38:52.304Z,43.13
2022-11-13T01:41:38.298Z,53.97
2022-11-13T01:44:11.548Z,42.87
2022-11-13T01:46:42.892Z,45.80
2022-11-13T01:49:09.839Z,42.67
2022-11-13T01:51:58.996Z,44.13
2022-11-13T01:54:32.886Z,44.27
2022-11-13T01:57:01.502Z,39.23
2022-11-13T01:59:34.485Z,39.33
2022-11-13T02:02:02.005Z,43.53
2022-11-13T02:04:30.763Z,42.50
2022-11-13T02:07:04.631Z,40.37
2022-11-13T02:09:40.365Z,46.53
2022-11-13T02:12:12.104Z,48.13
2022-11-13T02:14:43.652Z,47.73
2022-11-13T02:17:15.753Z,40.20
2022-11-13T02:19:48.461Z,38.97
2022-11-13T02:22:31.231Z,42.07
2022-11-13T02:25:02.028Z,41.97
2022-11-13T02:27:38.441Z,43.03
2022-11-13T02:30:26.516Z,39.77
2022-11-13T02:32:55.730Z,46.23
2022-11-13T02:35:33.199Z,46.17
2022-11-13T02:38:03.644Z,40.43
2022-11-13T02:40:32.707Z,46.60
2022-11-13T02:43:00.987Z,42.03
2022-11-13T02:45:28.385Z,42.23
2022-11-13T02:47:55.536Z,43.33
2022-11-13T02:50:22.977Z,40.37
2022-11-13T02:52:50.613Z,44.10
2022-11-13T02:55:19.357Z,41.80
2022-11-13T02:57:46.828Z,39.07
2022-11-13T03:00:14.620Z,39.20
2022-11-13T03:02:41.744Z,39.93
2022-11-13T03:05:12.499Z,38.57
2022-11-13T03:07:41.572Z,38.17
2022-11-13T03:10:10.481Z,37.03
2022-11-13T03:12:37.874Z,42.37
2022-11-13T03:15:07.002Z,44.13
2022-11-13T03:17:36.056Z,37.57
2022-11-13T03:20:03.917Z,46.00
2022-11-13T03:22:31.356Z,43.10
2022-11-13T03:24:58.487Z,41.97
2022-11-13T03:27:25.776Z,42.10
2022-11-13T03:29:52.875Z,43.00
2022-11-13T03:32:19.852Z,43.20
2022-11-13T03:34:47.304Z,42.13
2022-11-13T03:37:14.402Z,44.57
2022-11-13T03:39:44.984Z,39.23
2022-11-13T03:42:12.705Z,44.73
2022-11-13T03:44:39.689Z,47.07
2022-11-13T03:47:07.066Z,40.93
2022-11-13T03:49:34.469Z,52.03
2022-11-13T03:52:01.629Z,44.53
2022-11-13T03:54:28.740Z,43.83
2022-11-13T03:56:56.263Z,40.60
2022-11-13T03:59:23.307Z,40.57
2022-11-13T04:01:51.011Z,37.43
2022-11-13T04:04:18.199Z,49.53
2022-11-13T04:06:45.337Z,42.57
2022-11-13T04:09:13.516Z,40.67
2022-11-13T04:11:40.522Z,43.37
2022-11-13T04:14:07.941Z,37.17
2022-11-13T04:16:34.999Z,34.40
2022-11-13T04:19:02.305Z,37.70
2022-11-13T04:21:30.876Z,39.40
2022-11-13T04:23:57.957Z,42.37
2022-11-13T04:26:25.110Z,36.27
2022-11-13T04:28:52.479Z,33.80
2022-11-13T04:31:19.484Z,37.30
2022-11-13T04:33:46.584Z,36.57
2022-11-13T04:36:14.103Z,31.63
2022-11-13T04:38:42.105Z,30.17
2022-11-13T04:41:28.663Z,34.47
2022-11-13T04:43:56.091Z,34.13
2022-11-13T04:46:23.133Z,35.53
2022-11-13T04:48:50.414Z,37.43
2022-11-13T04:51:17.628Z,32.53
2022-11-13T04:53:44.827Z,30.27
2022-11-13T04:56:12.293Z,33.47
2022-11-13T04:58:39.312Z,33.83
2022-11-13T05:01:06.659Z,33.20
2022-11-13T05:03:33.708Z,33.67
2022-11-13T05:06:09.099Z,35.33
2022-11-13T05:08:37.051Z,32.90
2022-11-13T05:11:04.662Z,35.10
2022-11-13T05:13:34.159Z,35.57
2022-11-13T05:16:07.132Z,31.87
2022-11-13T05:18:36.577Z,35.10
2022-11-13T05:21:06.019Z,35.30
2022-11-13T05:23:33.647Z,32.67
2022-11-13T05:26:09.491Z,31.30
2022-11-13T05:28:37.407Z,32.37
2022-11-13T05:31:10.500Z,32.10
2022-11-13T05:33:38.911Z,34.80
2022-11-13T05:36:14.713Z,33.60
2022-11-13T05:38:44.132Z,35.33
2022-11-13T05:41:13.388Z,34.50
2022-11-13T05:43:41.137Z,35.47
2022-11-13T05:46:09.797Z,35.87
2022-11-13T05:48:37.475Z,33.07
2022-11-13T05:51:11.590Z,39.63
2022-11-13T05:53:39.521Z,35.70
2022-11-13T05:56:22.191Z,31.20
2022-11-13T05:58:50.559Z,28.90
2022-11-13T06:01:32.683Z,38.53
2022-11-13T06:04:00.944Z,32.67
2022-11-13T06:06:30.159Z,37.30
2022-11-13T06:08:59.204Z,32.63
2022-11-13T06:11:28.463Z,26.40
2022-11-13T06:13:58.055Z,31.10
2022-11-13T06:16:33.760Z,30.40
2022-11-13T06:19:04.128Z,34.80
2022-11-13T06:21:32.847Z,34.00
2022-11-13T06:24:01.419Z,36.07
2022-11-13T06:26:32.142Z,33.87
2022-11-13T06:29:00.898Z,30.83
2022-11-13T06:31:30.663Z,36.07
2022-11-13T06:33:59.452Z,34.00
2022-11-13T06:36:29.296Z,30.27
2022-11-13T06:38:57.260Z,33.23
2022-11-13T06:41:27.466Z,32.57
2022-11-13T06:43:58.512Z,32.93
2022-11-13T06:46:29.977Z,35.30
2022-11-13T06:48:57.566Z,36.97
2022-11-13T06:51:27.695Z,36.50
2022-11-13T06:53:55.368Z,46.10
2022-11-13T06:56:22.592Z,38.33
2022-11-13T06:58:50.071Z,38.93
2022-11-13T07:01:22.269Z,46.73
2022-11-13T07:03:49.707Z,36.87
2022-11-13T07:06:22.541Z,36.37
2022-11-13T07:08:50.250Z,39.13
2022-11-13T07:11:21.464Z,35.47
2022-11-13T07:13:48.633Z,31.17
2022-11-13T07:16:18.175Z,35.90
2022-11-13T07:18:53.461Z,37.43
2022-11-13T07:21:21.848Z,39.00
2022-11-13T07:23:50.329Z,36.63
2022-11-13T07:26:17.911Z,41.90
2022-11-13T07:28:45.571Z,33.53
2022-11-13T07:31:14.616Z,42.03
2022-11-13T07:33:42.278Z,42.07
2022-11-13T07:36:10.559Z,38.70
2022-11-13T07:38:37.868Z,36.33
2022-11-13T07:41:06.108Z,38.80
2022-11-13T07:43:34.404Z,36.90
2022-11-13T07:46:03.527Z,38.67
2022-11-13T07:48:31.062Z,39.60
2022-11-13T07:51:03.305Z,35.70
2022-11-13T07:53:30.958Z,33.83
2022-11-13T07:56:01.843Z,38.57
2022-11-13T07:58:29.373Z,34.33
2022-11-13T08:01:03.222Z,39.67
2022-11-13T08:03:30.618Z,36.30
2022-11-13T08:06:03.627Z,32.33
2022-11-13T08:08:31.343Z,30.87
2022-11-13T08:10:59.242Z,31.57
2022-11-13T08:13:27.683Z,30.63
2022-11-13T08:15:59.457Z,31.53
2022-11-13T08:18:28.663Z,28.17
2022-11-13T08:20:56.366Z,26.77
2022-11-13T08:23:23.655Z,25.30
2022-11-13T08:25:51.015Z,26.53
2022-11-13T08:28:18.552Z,33.00
2022-11-13T08:30:46.820Z,24.50
2022-11-13T08:33:13.913Z,31.03
2022-11-13T08:35:41.434Z,28.07
2022-11-13T08:38:09.610Z,29.73
2022-11-13T08:40:37.227Z,26.53
2022-11-13T08:43:05.134Z,24.23
2022-11-13T08:45:32.731Z,22.80
2022-11-13T08:48:04.076Z,23.23
2022-11-13T08:50:34.408Z,22.37
2022-11-13T08:53:01.780Z,19.37
2022-11-13T08:55:29.423Z,24.93
2022-11-13T08:58:00.112Z,22.23
2022-11-13T09:00:35.136Z,22.70
2022-11-13T09:03:03.963Z,16.83
2022-11-13T09:05:31.631Z,17.43
2022-11-13T09:08:01.142Z,17.50
2022-11-13T09:10:28.684Z,16.30
2022-11-13T09:13:05.090Z,14.57
2022-11-13T09:15:33.835Z,14.90
2022-11-13T09:18:02.940Z,18.00
2022-11-13T09:20:31.583Z,14.00
2022-11-13T09:23:05.322Z,16.57
2022-11-13T09:25:37.484Z,15.63
2022-11-13T09:28:06.386Z,15.97
2022-11-13T09:30:33.873Z,16.40
2022-11-13T09:33:01.992Z,17.73
2022-11-13T09:35:36.825Z,14.97
2022-11-13T09:38:11.076Z,15.77
2022-11-13T09:40:58.868Z,13.50
2022-11-13T09:43:35.369Z,15.57
2022-11-13T09:46:11.564Z,16.20
2022-11-13T09:48:42.917Z,17.00
2022-11-13T09:51:21.756Z,13.73
2022-11-13T09:53:49.646Z,15.53
2022-11-13T09:56:32.442Z,17.67
2022-11-13T09:59:15.583Z,17.33
2022-11-13T10:01:51.763Z,15.80
2022-11-13T10:04:32.495Z,18.63
2022-11-13T10:07:13.632Z,17.90
2022-11-13T10:10:00.026Z,17.53
2022-11-13T10:12:30.320Z,15.60
2022-11-13T10:15:02.261Z,19.07
2022-11-13T10:17:38.967Z,16.03
2022-11-13T10:20:21.794Z,18.10
2022-11-13T10:22:55.998Z,18.93
2022-11-13T10:25:31.316Z,16.10
2022-11-13T10:28:11.372Z,16.37
2022-11-13T10:30:50.815Z,18.03
2022-11-13T10:33:21.159Z,21.17
2022-11-13T10:35:59.029Z,17.60
2022-11-13T10:38:33.767Z,20.87
2022-11-13T10:41:12.584Z,16.67
2022-11-13T10:43:55.975Z,19.87
2022-11-13T10:46:25.945Z,17.57
2022-11-13T10:48:53.188Z,18.33
2022-11-13T10:51:29.881Z,21.70
2022-11-13T10:53:59.120Z,19.67
2022-11-13T10:56:31.762Z,20.47
2022-11-13T10:59:16.681Z,25.23
2022-11-13T11:01:45.610Z,19.47
2022-11-13T11:04:30.163Z,19.20
2022-11-13T11:07:20.246Z,20.50
2022-11-13T11:09:50.826Z,24.90
2022-11-13T11:12:20.551Z,18.67
2022-11-13T11:15:00.558Z,19.70
2022-11-13T11:17:54.742Z,21.10
2022-11-13T11:20:40.676Z,20.53
2022-11-13T11:23:19.616Z,17.50
2022-11-13T11:26:00.932Z,16.63
2022-11-13T11:28:45.114Z,19.97
2022-11-13T11:31:35.866Z,18.70
2022-11-13T11:34:18.104Z,18.90
2022-11-13T11:36:51.241Z,17.37
2022-11-13T11:39:39.915Z,17.60
2022-11-13T11:42:15.652Z,18.77
2022-11-13T11:44:48.892Z,19.27
2022-11-13T11:47:17.839Z,18.23
2022-11-13T11:49:45.331Z,18.70
2022-11-13T11:52:24.261Z,17.03
2022-11-13T11:55:30.323Z,19.83
2022-11-13T11:58:06.817Z,20.27
2022-11-13T12:00:39.984Z,19.60
2022-11-13T12:03:19.236Z,16.93
2022-11-13T12:05:46.321Z,23.73
2022-11-13T12:08:22.790Z,19.43
2022-11-13T12:11:07.971Z,19.37
2022-11-13T12:14:00.838Z,18.70
2022-11-13T12:16:32.368Z,17.27
2022-11-13T12:19:08.410Z,22.53
2022-11-13T12:21:35.344Z,21.23
2022-11-13T12:24:17.197Z,19.80
2022-11-13T12:27:08.807Z,21.20
2022-11-13T12:29:36.231Z,21.63
2022-11-13T12:32:22.265Z,18.07
2022-11-13T12:35:11.708Z,20.13
2022-11-13T12:38:03.506Z,22.10
2022-11-13T12:40:53.777Z,21.03
2022-11-13T12:43:35.625Z,19.17
2022-11-13T12:46:13.436Z,18.00
2022-11-13T12:48:46.967Z,18.53
2022-11-13T12:51:18.854Z,21.17
2022-11-13T12:53:52.282Z,20.43
2022-11-13T12:56:26.508Z,20.37
2022-11-13T12:59:31.334Z,17.27
2022-11-13T13:02:08.601Z,22.43
2022-11-13T13:05:07.582Z,17.37
2022-11-13T13:07:46.096Z,15.70
2022-11-13T13:10:36.082Z,17.23
2022-11-13T13:13:48.761Z,16.17
2022-11-13T13:16:26.118Z,16.80
2022-11-13T13:19:05.257Z,19.63
2022-11-13T13:21:44.232Z,18.33
2022-11-13T13:24:36.777Z,20.27
2022-11-13T13:27:26.299Z,17.63
2022-11-13T13:29:53.676Z,18.10
2022-11-13T13:32:39.413Z,18.17
2022-11-13T13:35:56.288Z,16.03
2022-11-13T13:38:47.969Z,17.63
2022-11-13T13:41:21.271Z,18.33
2022-11-13T13:44:12.722Z,17.73
2022-11-13T13:46:42.117Z,18.63
2022-11-13T13:49:16.252Z,17.00
2022-11-13T13:51:54.846Z,21.83
2022-11-13T13:54:28.042Z,18.70
2022-11-13T13:56:58.030Z,19.00
2022-11-13T13:59:28.283Z,21.63
2022-11-13T14:02:00.629Z,19.93
2022-11-13T14:04:46.042Z,22.20
2022-11-13T14:07:30.444Z,26.10
2022-11-13T14:10:13.340Z,20.73
2022-11-13T14:12:45.662Z,22.27
2022-11-13T14:15:28.046Z,21.03
2022-11-13T14:18:29.211Z,22.37
2022-11-13T14:20:59.704Z,21.80
2022-11-13T14:23:37.817Z,20.77
2022-11-13T14:26:06.021Z,19.70
2022-11-13T14:28:43.228Z,23.60
2022-11-13T14:31:12.755Z,22.27
2022-11-13T14:33:49.032Z,22.43
2022-11-13T14:36:25.001Z,28.40
2022-11-13T14:38:53.652Z,22.03
2022-11-13T14:41:50.771Z,21.23
2022-11-13T14:44:32.325Z,21.43
2022-11-13T14:47:05.557Z,19.63
2022-11-13T14:49:35.689Z,21.97
2022-11-13T14:52:03.493Z,24.40
2022-11-13T14:55:14.099Z,24.73
2022-11-13T14:57:26.650Z,22.13
2022-11-13T14:59:54.189Z,22.40
2022-11-13T15:02:21.787Z,24.63
2022-11-13T15:04:49.108Z,31.90
2022-11-13T15:07:29.340Z,28.80
2022-11-13T15:09:58.235Z,27.37
2022-11-13T15:12:25.538Z,24.27
2022-11-13T15:14:54.013Z,23.80
2022-11-13T15:17:22.739Z,24.20
2022-11-13T15:19:53.820Z,25.50
2022-11-13T15:22:26.991Z,24.43
2022-11-13T15:24:55.173Z,25.10
2022-11-13T15:27:22.282Z,22.30
2022-11-13T15:29:49.809Z,25.03
2022-11-13T15:32:16.962Z,27.67
2022-11-13T15:34:44.374Z,24.57
2022-11-13T15:37:16.884Z,22.87
2022-11-13T15:39:44.458Z,25.03
2022-11-13T15:42:16.014Z,24.70
2022-11-13T15:44:43.794Z,22.20
2022-11-13T15:47:33.545Z,29.57
2022-11-13T15:50:17.033Z,25.13
2022-11-13T15:52:47.396Z,24.53
2022-11-13T15:55:28.925Z,25.57
2022-11-13T15:57:57.832Z,25.00
2022-11-13T16:00:27.359Z,28.67
2022-11-13T16:02:57.549Z,27.13
2022-11-13T16:05:29.657Z,25.17
2022-11-13T16:07:57.050Z,25.07
2022-11-13T16:10:25.466Z,27.43
2022-11-13T16:12:53.703Z,21.70
2022-11-13T16:15:22.555Z,26.30
2022-11-13T16:17:55.678Z,28.70
2022-11-13T16:20:23.276Z,28.83
2022-11-13T16:22:50.772Z,29.03
2022-11-13T16:25:21.081Z,31.10
2022-11-13T16:27:48.299Z,27.07
2022-11-13T16:30:23.421Z,33.10
2022-11-13T16:32:50.868Z,29.50
2022-11-13T16:35:19.903Z,30.50
2022-11-13T16:37:47.205Z,28.20
2022-11-13T16:40:20.674Z,35.23
2022-11-13T16:42:48.403Z,32.13
2022-11-13T16:45:16.952Z,30.23
2022-11-13T16:47:44.883Z,30.27
2022-11-13T16:50:18.228Z,33.57
2022-11-13T16:52:45.522Z,30.07
2022-11-13T16:55:16.101Z,33.57
2022-11-13T16:57:43.204Z,31.10
2022-11-13T17:00:16.290Z,37.33
2022-11-13T17:02:44.895Z,30.83
2022-11-13T17:05:17.272Z,35.83
2022-11-13T17:07:44.918Z,35.73
2022-11-13T17:10:32.410Z,35.67
2022-11-13T17:13:00.983Z,35.03
2022-11-13T17:15:28.736Z,42.73
2022-11-13T17:17:58.368Z,37.97
2022-11-13T17:20:26.064Z,36.60
2022-11-13T17:22:53.365Z,35.87
2022-11-13T17:25:23.355Z,45.17
2022-11-13T17:27:50.406Z,40.57
2022-11-13T17:30:18.990Z,34.27
2022-11-13T17:32:46.221Z,41.03
2022-11-13T17:35:13.837Z,42.80
2022-11-13T17:37:41.482Z,39.00
2022-11-13T17:40:10.659Z,37.07
2022-11-13T17:42:37.695Z,43.27
2022-11-13T17:45:05.779Z,43.47
2022-11-13T17:47:34.345Z,41.27
2022-11-13T17:50:07.135Z,38.57
2022-11-13T17:52:34.991Z,43.53
2022-11-13T17:55:06.261Z,45.30
2022-11-13T17:57:33.790Z,41.30
2022-11-13T18:00:01.305Z,40.33
2022-11-13T18:02:28.448Z,40.63
2022-11-13T18:04:59.143Z,45.07
2022-11-13T18:07:29.824Z,39.97
2022-11-13T18:09:57.433Z,41.93
2022-11-13T18:12:25.067Z,41.80
2022-11-13T18:14:52.916Z,43.50
2022-11-13T18:17:21.004Z,42.10
2022-11-13T18:19:49.111Z,43.63
2022-11-13T18:22:16.663Z,37.13
2022-11-13T18:24:44.516Z,49.10
2022-11-13T18:27:14.245Z,39.60
2022-11-13T18:29:41.728Z,40.03
2022-11-13T18:32:08.894Z,36.80
2022-11-13T18:34:36.401Z,38.57
2022-11-13T18:37:03.632Z,45.87
2022-11-13T18:39:31.129Z,44.00
2022-11-13T18:42:00.364Z,36.50
2022-11-13T18:44:27.755Z,35.60
2022-11-13T18:46:55.057Z,40.10
2022-11-13T18:49:23.142Z,36.90
2022-11-13T18:51:52.924Z,32.23
2022-11-13T18:54:20.597Z,36.33
2022-11-13T18:56:47.836Z,37.50
2022-11-13T18:59:15.263Z,36.30
2022-11-13T19:01:43.006Z,41.17
2022-11-13T19:04:27.919Z,43.10
2022-11-13T19:06:55.314Z,42.67
2022-11-13T19:09:23.069Z,41.07
2022-11-13T19:11:51.493Z,40.53
2022-11-13T19:14:19.244Z,42.27
2022-11-13T19:16:47.241Z,41.13
2022-11-13T19:19:20.898Z,51.20
2022-11-13T19:21:48.454Z,42.83
2022-11-13T19:24:17.215Z,43.73
2022-11-13T19:26:45.107Z,40.77
2022-11-13T19:29:13.760Z,40.47
2022-11-13T19:31:41.152Z,41.20
2022-11-13T19:34:09.929Z,43.27
2022-11-13T19:36:37.336Z,45.00
2022-11-13T19:39:05.360Z,39.03
2022-11-13T19:41:32.893Z,44.40
2022-11-13T19:44:00.501Z,35.90
2022-11-13T19:46:32.511Z,40.13
2022-11-13T19:49:00.090Z,38.87
2022-11-13T19:51:27.681Z,38.53
2022-11-13T19:53:57.997Z,38.23
2022-11-13T19:56:28.627Z,45.93
2022-11-13T19:58:56.792Z,37.93
2022-11-13T20:01:26.777Z,35.63
2022-11-13T20:03:59.627Z,36.60
2022-11-13T20:06:28.651Z,29.67
2022-11-13T20:08:58.283Z,29.80
2022-11-13T20:11:25.985Z,29.57
2022-11-13T20:13:53.984Z,28.73
2022-11-13T20:16:23.486Z,26.40
2022-11-13T20:18:51.082Z,29.63
2022-11-13T20:21:29.817Z,30.53
2022-11-13T20:23:58.878Z,32.80
2022-11-13T20:26:26.277Z,33.57
2022-11-13T20:28:53.980Z,25.77
2022-11-13T20:31:23.332Z,29.83
2022-11-13T20:33:55.143Z,24.63
2022-11-13T20:36:23.719Z,27.13
2022-11-13T20:38:55.655Z,21.07
2022-11-13T20:41:24.198Z,26.50
2022-11-13T20:43:52.591Z,22.13
2022-11-13T20:46:20.995Z,29.60
2022-11-13T20:48:48.756Z,29.20
2022-11-13T20:51:22.021Z,25.87
2022-11-13T20:53:49.600Z,26.77
2022-11-13T20:56:18.398Z,32.10
2022-11-13T20:58:45.869Z,24.67
2022-11-13T21:01:16.238Z,30.47
2022-11-13T21:03:45.432Z,26.90
2022-11-13T21:06:15.680Z,23.60
2022-11-13T21:08:43.598Z,28.10
2022-11-13T21:11:29.366Z,26.30
2022-11-13T21:13:57.605Z,24.13
2022-11-13T21:16:25.512Z,21.23
2022-11-13T21:18:52.892Z,25.10
2022-11-13T21:21:22.099Z,25.30
2022-11-13T21:23:49.303Z,22.87
2022-11-13T21:26:19.007Z,23.97
2022-11-13T21:28:46.944Z,22.00
2022-11-13T21:31:16.893Z,22.90
2022-11-13T21:33:45.560Z,23.47
2022-11-13T21:36:16.528Z,25.23
2022-11-13T21:38:43.954Z,19.90
2022-11-13T21:41:22.990Z,22.20
2022-11-13T21:44:04.939Z,22.43
2022-11-13T21:46:35.179Z,18.60
2022-11-13T21:49:10.220Z,19.50
2022-11-13T21:51:40.254Z,21.63
2022-11-13T21:54:08.800Z,23.87
2022-11-13T21:56:37.868Z,28.13
2022-11-13T21:59:08.231Z,25.77
2022-11-13T22:01:38.596Z,28.47
2022-11-13T22:04:06.782Z,23.90
2022-11-13T22:06:42.291Z,26.43
2022-11-13T22:09:20.502Z,30.93
2022-11-13T22:11:48.108Z,22.77
2022-11-13T22:14:16.920Z,30.37
2022-11-13T22:16:46.634Z,24.17
2022-11-13T22:19:25.231Z,28.43
2022-11-13T22:21:55.969Z,26.20
2022-11-13T22:24:23.154Z,28.23
2022-11-13T22:26:50.956Z,28.73
2022-11-13T22:29:18.030Z,29.23
2022-11-13T22:31:47.202Z,31.77
2022-11-13T22:34:14.302Z,30.37
2022-11-13T22:36:41.737Z,30.13
2022-11-13T22:39:09.065Z,32.00
2022-11-13T22:41:36.907Z,32.27
2022-11-13T22:44:12.713Z,32.90
2022-11-13T22:46:41.288Z,29.57
2022-11-13T22:49:08.671Z,36.63
2022-11-13T22:51:39.085Z,27.63
2022-11-13T22:54:08.713Z,31.80
2022-11-13T22:56:38.318Z,34.50
2022-11-13T22:59:09.881Z,36.93
2022-11-13T23:01:38.648Z,29.50
2022-11-13T23:04:09.682Z,35.37
2022-11-13T23:06:37.515Z,36.53
2022-11-13T23:09:05.996Z,36.93
2022-11-13T23:11:39.228Z,31.90
2022-11-13T23:14:10.587Z,34.27
2022-11-13T23:16:38.315Z,34.83
2022-11-13T23:19:05.390Z,36.73
2022-11-13T23:21:32.458Z,33.97
2022-11-13T23:24:00.273Z,30.80
2022-11-13T23:26:28.610Z,27.20
2022-11-13T23:28:57.327Z,27.80
2022-11-13T23:31:24.918Z,27.00
2022-11-13T23:33:52.481Z,29.97
2022-11-13T23:36:20.878Z,31.67
2022-11-13T23:38:48.272Z,28.77
2022-11-13T23:41:15.714Z,29.30
2022-11-13T23:46:31.254Z,27.97
2022-11-13T23:48:58.276Z,24.20
2022-11-13T23:51:25.676Z,27.10
2022-11-13T23:53:53.969Z,24.60
2022-11-13T23:56:21.407Z,30.67
2022-11-13T23:58:48.665Z,25.37
